createdAt,value
2023-03-28T00:00:14.377Z,12.50
2023-03-28T00:02:41.272Z,17.15
2023-03-28T00:05:08.441Z,22.63
2023-03-28T00:07:36.320Z,21.60
2023-03-28T00:10:03.922Z,23.52
2023-03-28T00:12:30.794Z,22.48
2023-03-28T00:14:57.780Z,23.25
2023-03-28T00:17:25.185Z,16.38
2023-03-28T00:19:53.534Z,23.13
2023-03-28T00:22:21.314Z,14.70
2023-03-28T00:24:48.894Z,23.20
2023-03-28T00:27:17.869Z,23.30
2023-03-28T00:29:44.680Z,26.40
2023-03-28T00:32:11.678Z,15.15
2023-03-28T00:34:38.571Z,17.30
2023-03-28T00:37:05.564Z,19.90
2023-03-28T00:39:32.450Z,24.30
2023-03-28T00:42:03.377Z,21.92
2023-03-28T00:44:48.996Z,20.02
2023-03-28T00:47:20.633Z,25.13
2023-03-28T00:49:49.760Z,20.63
2023-03-28T00:52:18.046Z,24.92
2023-03-28T00:54:46.294Z,19.52
2023-03-28T00:57:16.544Z,18.38
2023-03-28T00:59:44.062Z,22.17
2023-03-28T01:02:12.037Z,17.85
2023-03-28T01:04:57.801Z,18.30
2023-03-28T01:07:28.806Z,24.88
2023-03-28T01:09:56.392Z,21.38
2023-03-28T01:12:24.246Z,17.50
2023-03-28T01:14:51.256Z,15.73
2023-03-28T01:17:18.372Z,19.23
2023-03-28T01:19:59.162Z,21.52
2023-03-28T01:22:56.304Z,22.10
2023-03-28T01:25:54.000Z,25.60
2023-03-28T01:29:06.149Z,21.63
2023-03-28T01:32:06.814Z,21.15
2023-03-28T01:35:06.417Z,26.55
2023-03-28T01:37:44.542Z,21.67
2023-03-28T01:40:27.801Z,26.77
2023-03-28T01:43:18.644Z,20.80
2023-03-28T01:45:45.682Z,18.77
2023-03-28T01:48:27.622Z,26.52
2023-03-28T01:51:08.089Z,21.80
2023-03-28T01:53:46.044Z,21.25
2023-03-28T01:56:16.096Z,20.75
2023-03-28T01:59:07.420Z,22.92
2023-03-28T02:01:45.278Z,19.92
2023-03-28T02:04:21.435Z,27.70
2023-03-28T02:06:50.993Z,23.80
2023-03-28T02:09:24.187Z,22.42
2023-03-28T02:11:56.738Z,22.70
2023-03-28T02:14:27.428Z,19.20
2023-03-28T02:17:01.911Z,18.55
2023-03-28T02:19:31.200Z,25.33
2023-03-28T02:22:04.716Z,35.35
2023-03-28T02:24:31.670Z,23.00
2023-03-28T02:26:58.609Z,27.38
2023-03-28T02:29:25.666Z,27.05
2023-03-28T02:31:52.639Z,24.02
2023-03-28T02:34:19.463Z,19.92
2023-03-28T02:37:01.116Z,39.13
2023-03-28T02:39:51.259Z,24.25
2023-03-28T02:42:20.983Z,19.50
2023-03-28T02:44:53.877Z,21.48
2023-03-28T02:47:34.910Z,25.55
2023-03-28T02:50:22.219Z,34.13
2023-03-28T02:53:01.134Z,25.85
2023-03-28T02:55:35.596Z,25.20
2023-03-28T02:58:10.456Z,21.40
2023-03-28T03:00:39.739Z,18.85
2023-03-28T03:03:11.763Z,19.17
2023-03-28T03:05:38.660Z,22.48
2023-03-28T03:08:05.880Z,23.52
2023-03-28T03:10:32.929Z,18.90
2023-03-28T03:13:00.183Z,23.08
2023-03-28T03:15:30.961Z,20.48
2023-03-28T03:18:01.302Z,20.02
2023-03-28T03:20:33.437Z,21.73
2023-03-28T03:23:01.630Z,20.98
2023-03-28T03:25:31.342Z,22.30
2023-03-28T03:27:58.261Z,20.23
2023-03-28T03:30:25.087Z,20.05
2023-03-28T03:32:51.951Z,19.75
2023-03-28T03:35:20.135Z,22.02
2023-03-28T03:37:48.194Z,21.02
2023-03-28T03:40:15.002Z,24.52
2023-03-28T03:42:41.820Z,20.45
2023-03-28T03:45:09.926Z,25.70
2023-03-28T03:47:36.845Z,26.85
2023-03-28T03:50:03.891Z,22.70
2023-03-28T03:52:30.679Z,23.85
2023-03-28T03:54:58.131Z,28.20
2023-03-28T03:57:25.016Z,21.52
2023-03-28T03:59:52.340Z,22.35
2023-03-28T04:02:19.208Z,21.65
2023-03-28T04:04:47.823Z,25.00
2023-03-28T04:07:15.572Z,20.25
2023-03-28T04:09:42.387Z,29.42
2023-03-28T04:12:11.466Z,27.42
2023-03-28T04:14:38.278Z,28.88
2023-03-28T04:17:05.267Z,23.42
2023-03-28T04:19:32.031Z,21.00
2023-03-28T04:21:59.323Z,23.60
2023-03-28T04:24:26.184Z,23.15
2023-03-28T04:26:56.130Z,23.95
2023-03-28T04:29:25.187Z,21.48
2023-03-28T04:31:56.050Z,22.33
2023-03-28T04:34:30.234Z,25.40
2023-03-28T04:37:01.764Z,19.63
2023-03-28T04:39:30.731Z,24.55
2023-03-28T04:42:01.956Z,23.23
2023-03-28T04:44:29.621Z,23.27
2023-03-28T04:46:58.261Z,24.52
2023-03-28T04:49:25.566Z,35.17
2023-03-28T04:51:52.797Z,25.48
2023-03-28T04:54:19.925Z,21.63
2023-03-28T04:56:50.441Z,19.70
2023-03-28T04:59:17.862Z,23.75
2023-03-28T05:01:49.392Z,19.95
2023-03-28T05:04:17.761Z,24.95
2023-03-28T05:06:45.934Z,24.40
2023-03-28T05:09:13.558Z,22.35
2023-03-28T05:11:41.417Z,22.13
2023-03-28T05:14:08.722Z,22.50
2023-03-28T05:16:36.440Z,19.17
2023-03-28T05:19:03.864Z,16.83
2023-03-28T05:21:30.716Z,20.10
2023-03-28T05:23:57.696Z,27.42
2023-03-28T05:26:24.647Z,18.75
2023-03-28T05:28:51.747Z,21.02
2023-03-28T05:31:18.580Z,24.00
2023-03-28T05:33:45.549Z,21.25
2023-03-28T05:36:13.061Z,24.00
2023-03-28T05:38:39.938Z,23.42
2023-03-28T05:41:07.115Z,25.85
2023-03-28T05:43:33.932Z,22.40
2023-03-28T05:46:00.906Z,23.70
2023-03-28T05:48:27.730Z,22.60
2023-03-28T05:50:54.664Z,20.17
2023-03-28T05:53:21.534Z,19.25
2023-03-28T05:55:49.333Z,23.23
2023-03-28T05:58:16.294Z,28.83
2023-03-28T06:00:44.700Z,27.25
2023-03-28T06:03:16.491Z,19.63
2023-03-28T06:05:44.434Z,25.92
2023-03-28T06:08:11.851Z,25.92
2023-03-28T06:10:38.974Z,23.75
2023-03-28T06:13:05.873Z,19.67
2023-03-28T06:15:33.176Z,24.58
2023-03-28T06:18:00.102Z,17.67
2023-03-28T06:20:27.255Z,23.63
2023-03-28T06:22:54.207Z,21.02
2023-03-28T06:25:21.066Z,21.60
2023-03-28T06:27:47.954Z,17.15
2023-03-28T06:30:15.512Z,22.88
2023-03-28T06:32:42.422Z,22.30
2023-03-28T06:55:59.871Z,18.70
2023-03-28T06:58:27.119Z,21.52
2023-03-28T07:00:54.571Z,21.00
2023-03-28T07:03:21.622Z,22.33
2023-03-28T07:05:48.541Z,20.98
2023-03-28T07:08:15.774Z,14.43
2023-03-28T07:10:43.288Z,16.23
2023-03-28T07:13:10.799Z,15.32
2023-03-28T07:15:37.668Z,15.80
2023-03-28T07:18:05.819Z,20.27
2023-03-28T07:20:33.025Z,19.60
2023-03-28T07:22:59.813Z,19.27
2023-03-28T07:25:26.659Z,22.17
2023-03-28T07:27:53.517Z,17.77
2023-03-28T07:30:20.473Z,18.35
2023-03-28T07:32:54.977Z,22.55
2023-03-28T07:35:30.335Z,18.40
2023-03-28T07:37:58.426Z,14.98
2023-03-28T07:40:25.255Z,20.73
2023-03-28T07:42:52.257Z,15.68
2023-03-28T07:45:19.082Z,15.43
2023-03-28T07:47:46.023Z,20.98
2023-03-28T07:50:13.227Z,17.40
2023-03-28T07:52:45.555Z,19.42
2023-03-28T07:55:13.993Z,14.40
2023-03-28T07:57:41.041Z,23.95
2023-03-28T08:00:13.019Z,13.55
2023-03-28T08:02:45.094Z,17.70
2023-03-28T08:05:12.257Z,19.40
2023-03-28T08:07:42.181Z,23.10
2023-03-28T08:10:09.666Z,17.60
2023-03-28T08:12:37.632Z,16.58
2023-03-28T08:15:06.011Z,17.83
2023-03-28T08:17:33.034Z,15.07
2023-03-28T08:19:59.912Z,15.80
2023-03-28T08:22:26.775Z,14.15
2023-03-28T08:24:53.661Z,16.77
2023-03-28T08:27:21.097Z,15.98
2023-03-28T08:29:47.970Z,14.80
2023-03-28T08:32:14.804Z,16.55
2023-03-28T08:34:41.632Z,16.10
2023-03-28T08:37:08.611Z,16.80
2023-03-28T08:39:37.392Z,17.42
2023-03-28T08:42:19.304Z,15.75
2023-03-28T08:45:00.506Z,16.67
2023-03-28T08:47:30.909Z,17.77
2023-03-28T08:50:06.875Z,19.42
2023-03-28T08:52:34.409Z,10.35
2023-03-28T08:55:22.244Z,19.13
2023-03-28T08:57:53.185Z,11.98
2023-03-28T09:00:27.540Z,14.82
2023-03-28T09:02:55.920Z,15.75
2023-03-28T09:05:38.782Z,18.75
2023-03-28T09:08:25.337Z,11.50
2023-03-28T09:10:56.901Z,13.73
2023-03-28T09:13:54.857Z,15.93
2023-03-28T09:16:24.771Z,10.88
2023-03-28T09:19:48.311Z,13.18
2023-03-28T09:22:39.694Z,8.60
2023-03-28T09:25:35.183Z,17.10
2023-03-28T09:28:28.164Z,7.25
2023-03-28T09:30:57.536Z,6.45
2023-03-28T09:33:32.120Z,9.38
2023-03-28T09:35:59.097Z,13.10
2023-03-28T09:38:33.272Z,14.07
2023-03-28T09:41:05.413Z,12.82
2023-03-28T09:43:44.185Z,12.55
2023-03-28T09:46:39.765Z,10.13
2023-03-28T09:51:33.535Z,5.97
2023-03-28T09:54:06.728Z,11.23
2023-03-28T09:56:40.910Z,15.77
2023-03-28T09:59:29.008Z,10.63
2023-03-28T10:01:57.191Z,11.45
2023-03-28T10:04:30.784Z,10.88
2023-03-28T10:07:22.274Z,10.05
2023-03-28T10:09:51.580Z,11.05
2023-03-28T10:12:24.121Z,10.20
2023-03-28T10:14:51.392Z,12.13
2023-03-28T10:17:30.163Z,14.13
2023-03-28T10:20:18.072Z,17.38
2023-03-28T10:22:48.119Z,10.27
2023-03-28T10:25:37.545Z,13.00
2023-03-28T10:28:07.239Z,13.70
2023-03-28T10:30:35.981Z,15.20
2023-03-28T10:33:17.895Z,9.23
2023-03-28T10:36:05.596Z,10.00
2023-03-28T10:38:38.227Z,7.95
2023-03-28T10:41:10.138Z,8.25
2023-03-28T10:43:39.718Z,12.73
2023-03-28T10:46:22.311Z,9.63
2023-03-28T10:48:56.516Z,10.00
2023-03-28T10:51:25.863Z,10.82
2023-03-28T10:54:18.989Z,13.82
2023-03-28T10:57:21.441Z,11.88
2023-03-28T10:59:51.719Z,13.63
2023-03-28T11:02:51.650Z,8.73
2023-03-28T11:05:32.300Z,10.63
2023-03-28T11:08:07.537Z,12.32
2023-03-28T11:10:57.557Z,10.60
2023-03-28T11:13:30.433Z,14.18
2023-03-28T11:16:11.155Z,9.98
2023-03-28T11:18:52.006Z,14.23
2023-03-28T11:21:55.876Z,14.52
2023-03-28T11:24:44.079Z,7.25
2023-03-28T11:27:16.306Z,8.55
2023-03-28T11:29:51.430Z,11.05
2023-03-28T11:32:36.047Z,6.90
2023-03-28T11:35:27.425Z,10.23
2023-03-28T11:38:22.171Z,7.28
2023-03-28T11:40:56.272Z,11.60
2023-03-28T11:43:47.965Z,7.53
2023-03-28T11:46:38.125Z,7.88
2023-03-28T11:49:23.081Z,5.57
2023-03-28T11:52:31.187Z,13.60
2023-03-28T11:55:21.259Z,7.93
2023-03-28T11:57:48.218Z,13.63
2023-03-28T12:00:34.214Z,9.68
2023-03-28T12:03:22.116Z,11.65
2023-03-28T12:06:04.132Z,10.35
2023-03-28T12:08:53.464Z,8.98
2023-03-28T12:11:26.728Z,9.70
2023-03-28T12:14:35.370Z,8.80
2023-03-28T12:17:11.060Z,13.95
2023-03-28T12:19:40.948Z,10.65
2023-03-28T12:22:37.788Z,9.48
2023-03-28T12:25:35.293Z,8.40
2023-03-28T12:28:35.786Z,8.82
2023-03-28T12:31:18.993Z,7.65
2023-03-28T12:34:05.058Z,9.82
2023-03-28T12:36:42.029Z,11.50
2023-03-28T12:39:35.401Z,12.00
2023-03-28T12:42:06.158Z,8.18
2023-03-28T12:44:43.485Z,10.65
2023-03-28T12:47:22.272Z,9.75
2023-03-28T12:49:55.583Z,11.80
2023-03-28T12:52:32.756Z,6.93
2023-03-28T12:55:07.321Z,19.55
2023-03-28T12:57:40.748Z,9.43
2023-03-28T13:00:11.112Z,12.23
2023-03-28T13:03:05.879Z,8.57
2023-03-28T13:05:58.415Z,9.73
2023-03-28T13:08:46.550Z,11.75
2023-03-28T13:11:13.615Z,9.65
2023-03-28T13:14:18.060Z,10.88
2023-03-28T13:17:13.592Z,11.70
2023-03-28T13:22:32.820Z,10.85
2023-03-28T13:25:22.492Z,10.73
2023-03-28T13:27:51.335Z,12.25
2023-03-28T13:30:27.571Z,11.45
2023-03-28T13:32:58.698Z,13.88
2023-03-28T13:35:47.033Z,6.47
2023-03-28T13:38:28.841Z,12.82
2023-03-28T13:41:09.174Z,9.27
2023-03-28T13:43:36.027Z,8.18
2023-03-28T13:46:09.192Z,10.60
2023-03-28T13:48:57.983Z,10.93
2023-03-28T13:51:29.984Z,12.88
2023-03-28T13:53:57.058Z,9.23
2023-03-28T13:56:31.511Z,15.40
2023-03-28T13:59:01.957Z,11.00
2023-03-28T14:01:50.397Z,6.70
2023-03-28T14:04:23.909Z,9.93
2023-03-28T14:06:52.863Z,11.38
2023-03-28T14:09:39.961Z,6.32
2023-03-28T14:12:11.310Z,10.60
2023-03-28T14:14:45.908Z,9.32
2023-03-28T14:17:20.070Z,9.05
2023-03-28T14:19:54.943Z,9.02
2023-03-28T14:22:26.302Z,7.82
2023-03-28T14:24:57.614Z,13.68
2023-03-28T14:27:43.541Z,8.80
2023-03-28T14:30:18.655Z,9.68
2023-03-28T14:33:00.033Z,8.15
2023-03-28T14:35:27.626Z,7.35
2023-03-28T14:37:57.537Z,16.13
2023-03-28T14:40:24.479Z,8.30
2023-03-28T14:42:56.434Z,9.82
2023-03-28T14:45:26.380Z,7.53
2023-03-28T14:47:58.193Z,7.45
2023-03-28T14:50:30.850Z,12.93
2023-03-28T14:53:06.062Z,13.55
2023-03-28T14:55:34.596Z,10.13
2023-03-28T14:58:03.068Z,12.10
2023-03-28T15:00:42.460Z,7.45
2023-03-28T15:03:16.625Z,13.23
2023-03-28T15:05:49.753Z,10.70
2023-03-28T15:08:34.309Z,12.88
2023-03-28T15:11:22.262Z,9.00
2023-03-28T15:13:57.880Z,7.40
2023-03-28T15:16:26.498Z,8.50
2023-03-28T15:19:09.465Z,11.05
2023-03-28T15:21:38.841Z,13.98
2023-03-28T15:24:08.053Z,7.95
2023-03-28T15:26:38.297Z,10.95
2023-03-28T15:29:07.991Z,10.55
2023-03-28T15:31:39.606Z,10.30
2023-03-28T15:34:11.655Z,8.75
2023-03-28T15:36:49.234Z,8.63
2023-03-28T15:39:25.604Z,13.57
2023-03-28T15:42:01.764Z,12.02
2023-03-28T15:47:04.442Z,9.75
2023-03-28T15:49:36.121Z,11.13
2023-03-28T15:52:05.993Z,9.75
2023-03-28T15:54:42.266Z,11.80
2023-03-28T15:57:14.651Z,7.63
2023-03-28T15:59:55.060Z,8.98
2023-03-28T16:02:25.080Z,9.95
2023-03-28T16:05:04.381Z,7.82
2023-03-28T16:07:50.129Z,8.75
2023-03-28T16:10:22.910Z,6.07
2023-03-28T16:12:53.206Z,11.05
2023-03-28T16:15:20.353Z,7.53
2023-03-28T16:17:48.796Z,14.50
2023-03-28T16:20:22.248Z,6.72
2023-03-28T16:22:49.699Z,8.20
2023-03-28T16:25:16.639Z,9.18
2023-03-28T16:27:43.641Z,9.38
2023-03-28T16:30:20.288Z,11.30
2023-03-28T16:32:47.386Z,8.52
2023-03-28T16:35:14.294Z,10.25
2023-03-28T16:37:41.187Z,9.52
2023-03-28T16:40:10.518Z,10.95
2023-03-28T16:42:37.375Z,11.57
2023-03-28T16:45:04.897Z,6.10
2023-03-28T16:47:31.966Z,6.30
2023-03-28T16:49:58.848Z,7.13
2023-03-28T16:52:27.784Z,6.25
2023-03-28T16:54:56.132Z,6.90
2023-03-28T16:57:23.162Z,6.75
2023-03-28T16:59:50.132Z,9.50
2023-03-28T17:02:17.354Z,6.43
2023-03-28T17:04:50.557Z,6.60
2023-03-28T17:07:18.116Z,6.25
2023-03-28T17:09:44.961Z,11.48
2023-03-28T17:12:11.838Z,13.73
2023-03-28T17:14:38.733Z,12.88
2023-03-28T17:17:05.525Z,11.65
2023-03-28T17:19:33.200Z,8.80
2023-03-28T17:22:00.647Z,12.45
2023-03-28T17:24:28.055Z,11.23
2023-03-28T17:26:54.856Z,7.47
2023-03-28T17:29:21.945Z,9.43
2023-03-28T17:31:49.138Z,9.73
2023-03-28T17:34:16.527Z,11.00
2023-03-28T17:36:44.429Z,9.18
2023-03-28T17:39:14.347Z,9.50
2023-03-28T17:41:41.539Z,5.53
2023-03-28T17:44:11.395Z,8.13
2023-03-28T17:46:38.764Z,7.57
2023-03-28T17:49:05.785Z,6.22
2023-03-28T17:51:32.651Z,6.95
2023-03-28T17:54:00.911Z,13.13
2023-03-28T17:56:28.011Z,7.95
2023-03-28T17:58:55.008Z,9.82
2023-03-28T18:01:22.432Z,6.45
2023-03-28T18:03:49.661Z,7.18
2023-03-28T18:06:16.842Z,10.13
2023-03-28T18:08:44.953Z,7.25
2023-03-28T18:11:14.870Z,8.05
2023-03-28T18:13:42.427Z,13.52
2023-03-28T18:16:11.742Z,6.30
2023-03-28T18:18:40.121Z,8.90
2023-03-28T18:21:11.495Z,7.18
2023-03-28T18:23:39.000Z,6.90
2023-03-28T18:26:06.737Z,10.75
2023-03-28T18:28:34.258Z,13.57
2023-03-28T18:31:08.954Z,8.55
2023-03-28T18:33:36.237Z,6.30
2023-03-28T18:36:03.356Z,7.63
2023-03-28T18:38:38.322Z,9.77
2023-03-28T18:41:08.243Z,7.45
2023-03-28T18:43:37.238Z,9.90
2023-03-28T18:46:07.883Z,8.05
2023-03-28T18:48:36.009Z,6.25
2023-03-28T18:51:04.002Z,6.55
2023-03-28T18:53:30.951Z,8.90
2023-03-28T18:55:57.836Z,9.68
2023-03-28T18:58:26.161Z,8.18
2023-03-28T19:00:59.262Z,6.65
2023-03-28T19:03:28.060Z,7.38
2023-03-28T19:05:59.980Z,9.38
2023-03-28T19:08:28.300Z,5.40
2023-03-28T19:10:57.078Z,5.90
2023-03-28T19:13:25.061Z,6.78
2023-03-28T19:16:03.604Z,6.43
2023-03-28T19:18:30.634Z,4.47
2023-03-28T19:20:58.396Z,7.07
2023-03-28T19:23:27.872Z,8.32
2023-03-28T19:25:55.311Z,5.45
2023-03-28T19:28:22.773Z,6.38
2023-03-28T19:30:57.203Z,5.82
2023-03-28T19:33:24.329Z,4.63
2023-03-28T19:35:51.482Z,4.47
2023-03-28T19:38:19.798Z,6.60
2023-03-28T19:40:47.415Z,7.78
2023-03-28T19:43:14.676Z,8.80
2023-03-28T19:45:41.631Z,6.80
2023-03-28T19:48:08.532Z,4.85
2023-03-28T19:50:36.697Z,8.70
2023-03-28T19:53:04.413Z,6.95
2023-03-28T19:55:31.469Z,6.68
2023-03-28T19:57:58.350Z,5.18
2023-03-28T20:00:25.625Z,6.82
2023-03-28T20:02:52.499Z,5.95
2023-03-28T20:05:19.357Z,5.53
2023-03-28T20:07:46.252Z,5.43
2023-03-28T20:10:13.084Z,5.25
2023-03-28T20:12:41.085Z,7.97
2023-03-28T20:15:09.359Z,10.13
2023-03-28T20:17:36.299Z,6.07
2023-03-28T20:20:04.960Z,6.75
2023-03-28T20:22:34.323Z,6.68
2023-03-28T20:25:01.453Z,6.57
2023-03-28T20:27:29.223Z,4.70
2023-03-28T20:29:56.059Z,4.63
2023-03-28T20:32:23.048Z,5.45
2023-03-28T20:34:49.889Z,6.88
2023-03-28T20:37:17.437Z,7.15
2023-03-28T20:39:47.222Z,5.18
2023-03-28T20:42:14.412Z,6.07
2023-03-28T20:44:41.375Z,5.20
2023-03-28T20:47:10.534Z,6.18
2023-03-28T20:49:38.469Z,8.18
2023-03-28T20:52:07.982Z,8.55
2023-03-28T20:54:35.210Z,6.03
2023-03-28T20:57:02.229Z,7.95
2023-03-28T20:59:29.216Z,7.22
2023-03-28T21:01:56.170Z,7.80
2023-03-28T21:04:23.208Z,10.40
2023-03-28T21:06:50.201Z,7.35
2023-03-28T21:09:18.056Z,9.23
2023-03-28T21:11:45.681Z,10.07
2023-03-28T21:14:14.107Z,12.68
2023-03-28T21:16:41.540Z,6.25
2023-03-28T21:19:08.679Z,6.18
2023-03-28T21:21:36.246Z,8.35
2023-03-28T21:24:04.890Z,9.90
2023-03-28T21:26:31.982Z,8.02
2023-03-28T21:28:59.412Z,5.55
2023-03-28T21:31:28.594Z,8.10
2023-03-28T21:33:59.445Z,7.50
2023-03-28T21:36:27.652Z,8.63
2023-03-28T21:38:55.363Z,6.25
2023-03-28T21:41:22.685Z,9.05
2023-03-28T21:43:50.302Z,6.50
2023-03-28T21:46:18.762Z,9.77
2023-03-28T21:48:48.432Z,7.82
2023-03-28T21:51:16.477Z,9.25
2023-03-28T21:53:43.317Z,8.18
2023-03-28T21:56:12.754Z,9.43
2023-03-28T21:58:40.035Z,5.20
2023-03-28T22:01:07.166Z,9.45
2023-03-28T22:03:37.329Z,7.72
2023-03-28T22:06:04.977Z,6.25
2023-03-28T22:08:32.433Z,6.22
2023-03-28T22:11:02.279Z,9.13
2023-03-28T22:13:29.949Z,7.40
2023-03-28T22:16:01.043Z,9.57
2023-03-28T22:18:28.118Z,5.65
2023-03-28T22:20:55.202Z,6.25
2023-03-28T22:23:25.203Z,5.53
2023-03-28T22:25:53.170Z,7.53
2023-03-28T22:28:24.377Z,9.57
2023-03-28T22:30:54.683Z,15.13
2023-03-28T22:33:23.198Z,7.30
2023-03-28T22:35:50.119Z,7.35
2023-03-28T22:38:17.229Z,7.15
2023-03-28T22:40:44.072Z,5.18
2023-03-28T22:43:10.864Z,8.80
2023-03-28T22:45:37.773Z,6.38
2023-03-28T22:48:14.036Z,6.85
2023-03-28T22:50:44.133Z,9.32
2023-03-28T22:53:12.488Z,6.65
2023-03-28T22:55:39.486Z,7.95
2023-03-28T22:58:06.253Z,8.60
2023-03-28T23:00:33.319Z,10.10
2023-03-28T23:03:01.679Z,7.15
2023-03-28T23:05:28.675Z,11.20
2023-03-28T23:07:55.647Z,8.23
2023-03-28T23:10:22.455Z,9.30
2023-03-28T23:12:49.933Z,6.55
2023-03-28T23:15:16.859Z,8.48
2023-03-28T23:17:44.471Z,7.28
2023-03-28T23:20:15.865Z,5.75
2023-03-28T23:22:44.432Z,6.68
2023-03-28T23:25:12.866Z,8.77
2023-03-28T23:27:39.813Z,7.07
2023-03-28T23:30:08.255Z,8.32
2023-03-28T23:32:35.292Z,6.28
2023-03-28T23:35:02.547Z,6.38
2023-03-28T23:37:29.741Z,8.57
2023-03-28T23:39:57.514Z,11.90
2023-03-28T23:42:25.092Z,7.35
2023-03-28T23:44:52.639Z,6.93
2023-03-28T23:47:23.164Z,6.20
2023-03-28T23:49:50.395Z,5.88
2023-03-28T23:52:17.315Z,7.22
2023-03-28T23:54:44.327Z,6.93
2023-03-28T23:57:11.597Z,6.70
2023-03-28T23:59:38.499Z,6.82
